sensor_id;sensor_type;location;lat;lon;timestamp;P1;durP1;ratioP1;P2;durP2;ratioP2
65469;SDS011;52067;50.710;14.492;2023-03-03T00:02:15;132.48;;;43.58;;
65469;SDS011;52067;50.710;14.492;2023-03-03T00:04:40;134.73;;;43.75;;
65469;SDS011;52067;50.710;14.492;2023-03-03T00:07:05;157.18;;;47.92;;
65469;SDS011;52067;50.710;14.492;2023-03-03T00:09:31;174.18;;;60.03;;
65469;SDS011;52067;50.710;14.492;2023-03-03T00:11:56;127.88;;;42.92;;
65469;SDS011;52067;50.710;14.492;2023-03-03T00:14:27;145.63;;;46.72;;
65469;SDS011;52067;50.710;14.492;2023-03-03T00:16:54;172.35;;;55.33;;
65469;SDS011;52067;50.710;14.492;2023-03-03T00:19:20;169.63;;;54.67;;
65469;SDS011;52067;50.710;14.492;2023-03-03T00:21:50;168.82;;;56.15;;
65469;SDS011;52067;50.710;14.492;2023-03-03T00:24:22;160.30;;;51.22;;
65469;SDS011;52067;50.710;14.492;2023-03-03T00:27:00;139.85;;;43.85;;
65469;SDS011;52067;50.710;14.492;2023-03-03T00:29:37;146.55;;;47.03;;
65469;SDS011;52067;50.710;14.492;2023-03-03T00:34:40;157.53;;;52.83;;
65469;SDS011;52067;50.710;14.492;2023-03-03T00:37:26;160.50;;;51.58;;
65469;SDS011;52067;50.710;14.492;2023-03-03T00:40:12;151.25;;;47.63;;
65469;SDS011;52067;50.710;14.492;2023-03-03T00:42:46;132.60;;;43.35;;
65469;SDS011;52067;50.710;14.492;2023-03-03T00:47:52;133.90;;;42.72;;
65469;SDS011;52067;50.710;14.492;2023-03-03T00:50:34;147.60;;;42.75;;
65469;SDS011;52067;50.710;14.492;2023-03-03T00:53:09;137.57;;;43.72;;
65469;SDS011;52067;50.710;14.492;2023-03-03T00:55:41;83.53;;;26.55;;
65469;SDS011;52067;50.710;14.492;2023-03-03T00:58:07;141.80;;;46.42;;
65469;SDS011;52067;50.710;14.492;2023-03-03T01:00:33;145.60;;;44.05;;
65469;SDS011;52067;50.710;14.492;2023-03-03T01:03:00;96.70;;;32.53;;
65469;SDS011;52067;50.710;14.492;2023-03-03T01:05:27;111.93;;;35.50;;
65469;SDS011;52067;50.710;14.492;2023-03-03T01:07:53;124.78;;;40.35;;
65469;SDS011;52067;50.710;14.492;2023-03-03T01:10:19;121.85;;;36.50;;
65469;SDS011;52067;50.710;14.492;2023-03-03T01:12:44;96.25;;;31.80;;
65469;SDS011;52067;50.710;14.492;2023-03-03T01:15:10;89.18;;;30.70;;
65469;SDS011;52067;50.710;14.492;2023-03-03T01:17:37;93.35;;;31.55;;
65469;SDS011;52067;50.710;14.492;2023-03-03T01:20:04;102.72;;;33.13;;
65469;SDS011;52067;50.710;14.492;2023-03-03T01:22:30;105.53;;;33.85;;
65469;SDS011;52067;50.710;14.492;2023-03-03T01:24:55;108.03;;;36.00;;
65469;SDS011;52067;50.710;14.492;2023-03-03T01:27:21;79.45;;;28.17;;
65469;SDS011;52067;50.710;14.492;2023-03-03T01:29:46;73.35;;;25.33;;
65469;SDS011;52067;50.710;14.492;2023-03-03T01:32:11;78.35;;;28.00;;
65469;SDS011;52067;50.710;14.492;2023-03-03T01:34:37;86.07;;;30.42;;
65469;SDS011;52067;50.710;14.492;2023-03-03T01:37:02;74.47;;;27.23;;
65469;SDS011;52067;50.710;14.492;2023-03-03T01:39:28;80.15;;;28.23;;
65469;SDS011;52067;50.710;14.492;2023-03-03T01:41:53;84.35;;;28.58;;
65469;SDS011;52067;50.710;14.492;2023-03-03T01:44:18;79.05;;;28.15;;
65469;SDS011;52067;50.710;14.492;2023-03-03T01:52:35;83.60;;;28.95;;
65469;SDS011;52067;50.710;14.492;2023-03-03T01:55:06;71.47;;;24.75;;
65469;SDS011;52067;50.710;14.492;2023-03-03T01:57:39;62.55;;;22.65;;
65469;SDS011;52067;50.710;14.492;2023-03-03T02:00:11;74.20;;;27.83;;
65469;SDS011;52067;50.710;14.492;2023-03-03T02:02:37;96.50;;;31.42;;
65469;SDS011;52067;50.710;14.492;2023-03-03T02:05:04;76.95;;;27.70;;
65469;SDS011;52067;50.710;14.492;2023-03-03T02:07:30;71.72;;;25.67;;
65469;SDS011;52067;50.710;14.492;2023-03-03T02:09:58;75.95;;;25.85;;
65469;SDS011;52067;50.710;14.492;2023-03-03T02:12:49;65.18;;;24.95;;
65469;SDS011;52067;50.710;14.492;2023-03-03T02:17:50;69.43;;;26.35;;
65469;SDS011;52067;50.710;14.492;2023-03-03T02:20:30;63.65;;;23.00;;
65469;SDS011;52067;50.710;14.492;2023-03-03T02:23:41;61.60;;;22.17;;
65469;SDS011;52067;50.710;14.492;2023-03-03T02:26:06;71.70;;;26.02;;
65469;SDS011;52067;50.710;14.492;2023-03-03T02:28:52;67.05;;;24.55;;
65469;SDS011;52067;50.710;14.492;2023-03-03T02:31:19;59.10;;;23.05;;
65469;SDS011;52067;50.710;14.492;2023-03-03T02:33:49;50.00;;;19.15;;
65469;SDS011;52067;50.710;14.492;2023-03-03T02:36:16;62.70;;;23.13;;
65469;SDS011;52067;50.710;14.492;2023-03-03T02:44:12;70.15;;;23.55;;
65469;SDS011;52067;50.710;14.492;2023-03-03T02:46:41;56.33;;;22.50;;
65469;SDS011;52067;50.710;14.492;2023-03-03T02:49:08;54.75;;;20.05;;
65469;SDS011;52067;50.710;14.492;2023-03-03T02:51:35;63.72;;;25.17;;
65469;SDS011;52067;50.710;14.492;2023-03-03T02:54:01;58.25;;;22.38;;
65469;SDS011;52067;50.710;14.492;2023-03-03T02:56:27;64.68;;;23.35;;
65469;SDS011;52067;50.710;14.492;2023-03-03T02:58:52;62.17;;;23.40;;
65469;SDS011;52067;50.710;14.492;2023-03-03T03:01:18;61.42;;;24.05;;
65469;SDS011;52067;50.710;14.492;2023-03-03T03:03:43;69.60;;;25.48;;
65469;SDS011;52067;50.710;14.492;2023-03-03T03:06:09;56.25;;;21.83;;
65469;SDS011;52067;50.710;14.492;2023-03-03T03:08:35;28.30;;;12.40;;
65469;SDS011;52067;50.710;14.492;2023-03-03T03:11:00;41.58;;;16.48;;
65469;SDS011;52067;50.710;14.492;2023-03-03T03:13:26;61.10;;;22.50;;
65469;SDS011;52067;50.710;14.492;2023-03-03T03:15:51;60.90;;;22.50;;
65469;SDS011;52067;50.710;14.492;2023-03-03T03:18:17;53.80;;;20.80;;
65469;SDS011;52067;50.710;14.492;2023-03-03T03:20:43;52.25;;;20.60;;
65469;SDS011;52067;50.710;14.492;2023-03-03T03:23:08;66.88;;;24.77;;
65469;SDS011;52067;50.710;14.492;2023-03-03T03:25:35;46.25;;;17.42;;
65469;SDS011;52067;50.710;14.492;2023-03-03T03:28:06;69.70;;;24.38;;
65469;SDS011;52067;50.710;14.492;2023-03-03T03:30:32;55.53;;;19.08;;
65469;SDS011;52067;50.710;14.492;2023-03-03T03:33:00;64.15;;;24.25;;
65469;SDS011;52067;50.710;14.492;2023-03-03T03:35:25;57.33;;;21.60;;
65469;SDS011;52067;50.710;14.492;2023-03-03T03:37:50;71.88;;;25.08;;
65469;SDS011;52067;50.710;14.492;2023-03-03T03:40:16;60.08;;;21.42;;
65469;SDS011;52067;50.710;14.492;2023-03-03T03:42:41;62.45;;;22.25;;
65469;SDS011;52067;50.710;14.492;2023-03-03T03:45:06;82.82;;;25.63;;
65469;SDS011;52067;50.710;14.492;2023-03-03T03:47:32;62.22;;;23.83;;
65469;SDS011;52067;50.710;14.492;2023-03-03T03:49:57;74.47;;;24.55;;
65469;SDS011;52067;50.710;14.492;2023-03-03T03:52:23;79.30;;;26.38;;
65469;SDS011;52067;50.710;14.492;2023-03-03T03:54:48;59.67;;;22.60;;
65469;SDS011;52067;50.710;14.492;2023-03-03T03:57:13;55.85;;;19.90;;
65469;SDS011;52067;50.710;14.492;2023-03-03T03:59:39;63.17;;;23.10;;
65469;SDS011;52067;50.710;14.492;2023-03-03T04:02:04;93.93;;;28.23;;
65469;SDS011;52067;50.710;14.492;2023-03-03T04:04:30;56.80;;;20.17;;
65469;SDS011;52067;50.710;14.492;2023-03-03T04:06:55;57.45;;;22.25;;
65469;SDS011;52067;50.710;14.492;2023-03-03T04:09:21;48.42;;;19.45;;
65469;SDS011;52067;50.710;14.492;2023-03-03T04:11:46;39.72;;;15.98;;
65469;SDS011;52067;50.710;14.492;2023-03-03T04:14:12;78.88;;;27.98;;
65469;SDS011;52067;50.710;14.492;2023-03-03T04:16:37;67.45;;;23.35;;
65469;SDS011;52067;50.710;14.492;2023-03-03T04:19:02;74.07;;;24.90;;
65469;SDS011;52067;50.710;14.492;2023-03-03T04:21:28;59.78;;;21.58;;
65469;SDS011;52067;50.710;14.492;2023-03-03T04:23:53;47.65;;;17.60;;
65469;SDS011;52067;50.710;14.492;2023-03-03T04:26:19;68.43;;;22.33;;
65469;SDS011;52067;50.710;14.492;2023-03-03T04:28:44;66.22;;;24.50;;
65469;SDS011;52067;50.710;14.492;2023-03-03T04:31:10;61.95;;;22.38;;
65469;SDS011;52067;50.710;14.492;2023-03-03T04:33:35;44.55;;;16.92;;
65469;SDS011;52067;50.710;14.492;2023-03-03T04:36:01;44.17;;;16.83;;
65469;SDS011;52067;50.710;14.492;2023-03-03T04:38:26;43.65;;;16.90;;
65469;SDS011;52067;50.710;14.492;2023-03-03T04:40:52;47.92;;;17.40;;
65469;SDS011;52067;50.710;14.492;2023-03-03T04:43:17;52.13;;;19.33;;
65469;SDS011;52067;50.710;14.492;2023-03-03T04:45:43;63.05;;;24.13;;
65469;SDS011;52067;50.710;14.492;2023-03-03T04:48:08;45.47;;;16.95;;
65469;SDS011;52067;50.710;14.492;2023-03-03T04:50:34;45.03;;;18.40;;
65469;SDS011;52067;50.710;14.492;2023-03-03T04:52:59;68.55;;;26.13;;
65469;SDS011;52067;50.710;14.492;2023-03-03T04:55:24;59.08;;;20.50;;
65469;SDS011;52067;50.710;14.492;2023-03-03T04:57:50;66.63;;;24.52;;
65469;SDS011;52067;50.710;14.492;2023-03-03T05:00:15;63.65;;;22.05;;
65469;SDS011;52067;50.710;14.492;2023-03-03T05:02:41;44.63;;;18.00;;
65469;SDS011;52067;50.710;14.492;2023-03-03T05:05:07;56.33;;;20.52;;
65469;SDS011;52067;50.710;14.492;2023-03-03T05:07:34;41.58;;;13.18;;
65469;SDS011;52067;50.710;14.492;2023-03-03T05:09:59;63.45;;;21.10;;
65469;SDS011;52067;50.710;14.492;2023-03-03T05:12:24;47.40;;;16.98;;
65469;SDS011;52067;50.710;14.492;2023-03-03T05:14:50;48.97;;;19.38;;
65469;SDS011;52067;50.710;14.492;2023-03-03T05:17:16;49.85;;;18.92;;
65469;SDS011;52067;50.710;14.492;2023-03-03T05:19:41;65.15;;;23.65;;
65469;SDS011;52067;50.710;14.492;2023-03-03T05:22:07;68.65;;;25.15;;
65469;SDS011;52067;50.710;14.492;2023-03-03T05:24:32;57.03;;;21.75;;
65469;SDS011;52067;50.710;14.492;2023-03-03T05:26:57;43.75;;;18.27;;
65469;SDS011;52067;50.710;14.492;2023-03-03T05:29:23;43.83;;;14.65;;
65469;SDS011;52067;50.710;14.492;2023-03-03T05:31:48;47.50;;;18.95;;
65469;SDS011;52067;50.710;14.492;2023-03-03T05:34:14;50.60;;;20.08;;
65469;SDS011;52067;50.710;14.492;2023-03-03T05:36:39;55.42;;;21.23;;
65469;SDS011;52067;50.710;14.492;2023-03-03T05:39:05;62.03;;;23.50;;
65469;SDS011;52067;50.710;14.492;2023-03-03T05:41:30;52.13;;;18.58;;
65469;SDS011;52067;50.710;14.492;2023-03-03T05:43:56;43.15;;;16.25;;
65469;SDS011;52067;50.710;14.492;2023-03-03T05:46:21;50.50;;;18.98;;
65469;SDS011;52067;50.710;14.492;2023-03-03T05:48:46;50.75;;;18.40;;
65469;SDS011;52067;50.710;14.492;2023-03-03T05:51:12;47.72;;;18.65;;
65469;SDS011;52067;50.710;14.492;2023-03-03T05:53:38;49.13;;;16.40;;
65469;SDS011;52067;50.710;14.492;2023-03-03T05:56:03;59.38;;;20.15;;
65469;SDS011;52067;50.710;14.492;2023-03-03T05:58:29;49.92;;;18.10;;
65469;SDS011;52067;50.710;14.492;2023-03-03T06:00:54;53.65;;;18.58;;
65469;SDS011;52067;50.710;14.492;2023-03-03T06:03:20;34.60;;;14.57;;
65469;SDS011;52067;50.710;14.492;2023-03-03T06:05:45;38.88;;;13.65;;
65469;SDS011;52067;50.710;14.492;2023-03-03T06:08:10;35.70;;;13.63;;
65469;SDS011;52067;50.710;14.492;2023-03-03T06:10:36;42.90;;;15.63;;
65469;SDS011;52067;50.710;14.492;2023-03-03T06:13:01;45.80;;;17.88;;
65469;SDS011;52067;50.710;14.492;2023-03-03T06:15:27;52.80;;;20.45;;
65469;SDS011;52067;50.710;14.492;2023-03-03T06:17:52;53.17;;;17.45;;
65469;SDS011;52067;50.710;14.492;2023-03-03T06:20:18;66.03;;;22.30;;
65469;SDS011;52067;50.710;14.492;2023-03-03T06:22:43;49.25;;;18.90;;
65469;SDS011;52067;50.710;14.492;2023-03-03T06:25:08;76.72;;;24.02;;
65469;SDS011;52067;50.710;14.492;2023-03-03T06:27:34;54.17;;;18.63;;
65469;SDS011;52067;50.710;14.492;2023-03-03T06:30:00;60.38;;;21.40;;
65469;SDS011;52067;50.710;14.492;2023-03-03T06:32:25;63.30;;;20.73;;
65469;SDS011;52067;50.710;14.492;2023-03-03T06:34:50;47.00;;;17.95;;
65469;SDS011;52067;50.710;14.492;2023-03-03T06:37:16;61.55;;;20.52;;
65469;SDS011;52067;50.710;14.492;2023-03-03T06:39:41;38.33;;;15.68;;
65469;SDS011;52067;50.710;14.492;2023-03-03T06:42:07;31.65;;;12.85;;
65469;SDS011;52067;50.710;14.492;2023-03-03T06:44:33;39.83;;;12.93;;
65469;SDS011;52067;50.710;14.492;2023-03-03T06:47:00;35.42;;;14.77;;
65469;SDS011;52067;50.710;14.492;2023-03-03T06:49:25;36.88;;;13.95;;
65469;SDS011;52067;50.710;14.492;2023-03-03T06:51:51;52.83;;;20.42;;
65469;SDS011;52067;50.710;14.492;2023-03-03T06:54:20;51.05;;;17.20;;
65469;SDS011;52067;50.710;14.492;2023-03-03T06:56:51;69.80;;;22.70;;
65469;SDS011;52067;50.710;14.492;2023-03-03T06:59:20;59.47;;;19.75;;
65469;SDS011;52067;50.710;14.492;2023-03-03T07:01:49;51.97;;;17.90;;
65469;SDS011;52067;50.710;14.492;2023-03-03T07:06:43;76.18;;;25.20;;
65469;SDS011;52067;50.710;14.492;2023-03-03T07:09:13;72.72;;;24.85;;
65469;SDS011;52067;50.710;14.492;2023-03-03T07:11:43;60.05;;;19.15;;
65469;SDS011;52067;50.710;14.492;2023-03-03T07:14:13;61.05;;;21.63;;
65469;SDS011;52067;50.710;14.492;2023-03-03T07:16:42;52.60;;;20.10;;
65469;SDS011;52067;50.710;14.492;2023-03-03T07:19:13;62.15;;;21.23;;
65469;SDS011;52067;50.710;14.492;2023-03-03T07:21:44;38.83;;;14.77;;
65469;SDS011;52067;50.710;14.492;2023-03-03T07:24:28;26.30;;;10.20;;
65469;SDS011;52067;50.710;14.492;2023-03-03T07:29:36;50.85;;;18.48;;
65469;SDS011;52067;50.710;14.492;2023-03-03T07:32:09;40.90;;;16.13;;
65469;SDS011;52067;50.710;14.492;2023-03-03T07:34:58;49.80;;;16.88;;
65469;SDS011;52067;50.710;14.492;2023-03-03T07:40:10;40.35;;;15.05;;
65469;SDS011;52067;50.710;14.492;2023-03-03T07:43:24;35.92;;;14.25;;
65469;SDS011;52067;50.710;14.492;2023-03-03T07:48:39;30.08;;;12.57;;
65469;SDS011;52067;50.710;14.492;2023-03-03T07:51:15;20.58;;;9.25;;
65469;SDS011;52067;50.710;14.492;2023-03-03T07:53:49;20.40;;;8.98;;
65469;SDS011;52067;50.710;14.492;2023-03-03T07:58:48;18.58;;;7.35;;
65469;SDS011;52067;50.710;14.492;2023-03-03T08:04:08;26.15;;;9.57;;
65469;SDS011;52067;50.710;14.492;2023-03-03T08:06:46;30.42;;;11.00;;
65469;SDS011;52067;50.710;14.492;2023-03-03T08:11:54;35.17;;;13.15;;
65469;SDS011;52067;50.710;14.492;2023-03-03T08:14:29;27.02;;;10.50;;
65469;SDS011;52067;50.710;14.492;2023-03-03T08:16:57;30.95;;;12.65;;
65469;SDS011;52067;50.710;14.492;2023-03-03T08:19:23;33.53;;;12.35;;
65469;SDS011;52067;50.710;14.492;2023-03-03T08:21:49;27.65;;;11.50;;
65469;SDS011;52067;50.710;14.492;2023-03-03T08:24:15;31.45;;;11.48;;
65469;SDS011;52067;50.710;14.492;2023-03-03T08:26:41;30.27;;;11.95;;
65469;SDS011;52067;50.710;14.492;2023-03-03T08:29:06;30.23;;;13.25;;
65469;SDS011;52067;50.710;14.492;2023-03-03T08:31:32;34.63;;;16.55;;
65469;SDS011;52067;50.710;14.492;2023-03-03T08:33:57;30.08;;;12.00;;
65469;SDS011;52067;50.710;14.492;2023-03-03T08:36:23;28.48;;;10.82;;
65469;SDS011;52067;50.710;14.492;2023-03-03T08:38:48;25.80;;;10.77;;
65469;SDS011;52067;50.710;14.492;2023-03-03T08:41:13;22.02;;;9.45;;
65469;SDS011;52067;50.710;14.492;2023-03-03T08:43:39;26.80;;;9.95;;
65469;SDS011;52067;50.710;14.492;2023-03-03T08:46:05;27.95;;;11.30;;
65469;SDS011;52067;50.710;14.492;2023-03-03T08:48:31;21.88;;;8.88;;
65469;SDS011;52067;50.710;14.492;2023-03-03T08:50:57;27.75;;;10.93;;
65469;SDS011;52067;50.710;14.492;2023-03-03T08:53:23;22.10;;;8.90;;
65469;SDS011;52067;50.710;14.492;2023-03-03T08:55:49;30.05;;;10.63;;
65469;SDS011;52067;50.710;14.492;2023-03-03T08:58:16;24.00;;;9.40;;
65469;SDS011;52067;50.710;14.492;2023-03-03T09:00:42;19.85;;;8.82;;
65469;SDS011;52067;50.710;14.492;2023-03-03T09:03:08;26.13;;;11.27;;
65469;SDS011;52067;50.710;14.492;2023-03-03T09:05:35;24.65;;;8.30;;
65469;SDS011;52067;50.710;14.492;2023-03-03T09:08:02;25.55;;;10.50;;
65469;SDS011;52067;50.710;14.492;2023-03-03T09:10:28;15.90;;;7.03;;
65469;SDS011;52067;50.710;14.492;2023-03-03T09:12:56;26.60;;;11.05;;
65469;SDS011;52067;50.710;14.492;2023-03-03T09:17:51;25.92;;;10.43;;
65469;SDS011;52067;50.710;14.492;2023-03-03T09:20:31;29.98;;;12.68;;
65469;SDS011;52067;50.710;14.492;2023-03-03T09:25:48;16.05;;;7.03;;
65469;SDS011;52067;50.710;14.492;2023-03-03T09:28:24;27.30;;;11.38;;
65469;SDS011;52067;50.710;14.492;2023-03-03T09:30:58;22.67;;;8.68;;
65469;SDS011;52067;50.710;14.492;2023-03-03T09:33:41;21.65;;;9.70;;
65469;SDS011;52067;50.710;14.492;2023-03-03T09:36:22;15.13;;;6.50;;
65469;SDS011;52067;50.710;14.492;2023-03-03T09:39:00;25.13;;;10.60;;
65469;SDS011;52067;50.710;14.492;2023-03-03T09:52:25;24.55;;;9.75;;
65469;SDS011;52067;50.710;14.492;2023-03-03T09:57:54;11.38;;;4.97;;
65469;SDS011;52067;50.710;14.492;2023-03-03T10:03:17;10.82;;;5.30;;
65469;SDS011;52067;50.710;14.492;2023-03-03T10:11:00;18.98;;;9.02;;
65469;SDS011;52067;50.710;14.492;2023-03-03T10:13:56;13.00;;;6.10;;
65469;SDS011;52067;50.710;14.492;2023-03-03T10:19:14;15.32;;;5.30;;
65469;SDS011;52067;50.710;14.492;2023-03-03T10:24:39;14.40;;;5.05;;
65469;SDS011;52067;50.710;14.492;2023-03-03T10:30:10;15.75;;;6.95;;
65469;SDS011;52067;50.710;14.492;2023-03-03T10:44:22;11.73;;;5.55;;
65469;SDS011;52067;50.710;14.492;2023-03-03T10:55:16;12.77;;;4.90;;
65469;SDS011;52067;50.710;14.492;2023-03-03T10:57:53;11.30;;;5.13;;
65469;SDS011;52067;50.710;14.492;2023-03-03T11:00:40;13.93;;;5.57;;
65469;SDS011;52067;50.710;14.492;2023-03-03T11:05:52;13.43;;;5.90;;
65469;SDS011;52067;50.710;14.492;2023-03-03T11:13:49;19.38;;;6.63;;
65469;SDS011;52067;50.710;14.492;2023-03-03T11:24:57;13.80;;;6.28;;
65469;SDS011;52067;50.710;14.492;2023-03-03T11:36:15;15.27;;;6.47;;
65469;SDS011;52067;50.710;14.492;2023-03-03T11:38:51;14.80;;;5.82;;
65469;SDS011;52067;50.710;14.492;2023-03-03T11:41:28;10.68;;;4.70;;
65469;SDS011;52067;50.710;14.492;2023-03-03T11:44:07;12.07;;;5.18;;
65469;SDS011;52067;50.710;14.492;2023-03-03T11:52:14;11.40;;;5.80;;
65469;SDS011;52067;50.710;14.492;2023-03-03T11:54:53;13.10;;;5.55;;
65469;SDS011;52067;50.710;14.492;2023-03-03T11:57:31;12.18;;;5.65;;
65469;SDS011;52067;50.710;14.492;2023-03-03T12:00:05;9.70;;;4.55;;
65469;SDS011;52067;50.710;14.492;2023-03-03T12:11:27;10.05;;;4.10;;
65469;SDS011;52067;50.710;14.492;2023-03-03T12:25:03;13.47;;;5.80;;
65469;SDS011;52067;50.710;14.492;2023-03-03T12:27:44;10.50;;;4.38;;
65469;SDS011;52067;50.710;14.492;2023-03-03T12:30:26;10.52;;;5.35;;
65469;SDS011;52067;50.710;14.492;2023-03-03T12:41:22;10.40;;;5.55;;
65469;SDS011;52067;50.710;14.492;2023-03-03T12:57:54;14.32;;;5.32;;
65469;SDS011;52067;50.710;14.492;2023-03-03T13:00:44;18.45;;;7.65;;
65469;SDS011;52067;50.710;14.492;2023-03-03T13:03:23;11.65;;;5.03;;
65469;SDS011;52067;50.710;14.492;2023-03-03T13:06:11;13.93;;;6.68;;
65469;SDS011;52067;50.710;14.492;2023-03-03T13:17:02;11.13;;;4.75;;
65469;SDS011;52067;50.710;14.492;2023-03-03T13:19:40;10.95;;;5.57;;
65469;SDS011;52067;50.710;14.492;2023-03-03T13:22:15;6.65;;;3.63;;
65469;SDS011;52067;50.710;14.492;2023-03-03T13:27:29;8.30;;;4.10;;
65469;SDS011;52067;50.710;14.492;2023-03-03T13:30:45;9.30;;;4.43;;
65469;SDS011;52067;50.710;14.492;2023-03-03T13:33:04;9.38;;;3.63;;
65469;SDS011;52067;50.710;14.492;2023-03-03T13:35:44;10.27;;;4.88;;
65469;SDS011;52067;50.710;14.492;2023-03-03T13:38:20;13.05;;;6.05;;
65469;SDS011;52067;50.710;14.492;2023-03-03T13:40:50;7.63;;;3.72;;
65469;SDS011;52067;50.710;14.492;2023-03-03T13:43:23;15.43;;;5.82;;
65469;SDS011;52067;50.710;14.492;2023-03-03T13:45:56;10.60;;;5.03;;
65469;SDS011;52067;50.710;14.492;2023-03-03T13:53:45;13.05;;;6.00;;
65469;SDS011;52067;50.710;14.492;2023-03-03T13:59:26;14.05;;;5.05;;
65469;SDS011;52067;50.710;14.492;2023-03-03T14:02:07;11.75;;;5.63;;
65469;SDS011;52067;50.710;14.492;2023-03-03T14:05:10;11.40;;;5.40;;
65469;SDS011;52067;50.710;14.492;2023-03-03T14:07:56;10.48;;;5.50;;
65469;SDS011;52067;50.710;14.492;2023-03-03T14:10:47;16.88;;;6.43;;
65469;SDS011;52067;50.710;14.492;2023-03-03T14:13:30;10.43;;;4.38;;
65469;SDS011;52067;50.710;14.492;2023-03-03T14:16:28;10.70;;;4.90;;
65469;SDS011;52067;50.710;14.492;2023-03-03T14:19:20;13.07;;;5.18;;
65469;SDS011;52067;50.710;14.492;2023-03-03T14:22:18;13.38;;;6.05;;
65469;SDS011;52067;50.710;14.492;2023-03-03T14:24:58;11.77;;;6.50;;
65469;SDS011;52067;50.710;14.492;2023-03-03T14:27:33;12.02;;;6.13;;
65469;SDS011;52067;50.710;14.492;2023-03-03T14:38:19;26.10;;;10.35;;
65469;SDS011;52067;50.710;14.492;2023-03-03T14:40:47;10.40;;;5.82;;
65469;SDS011;52067;50.710;14.492;2023-03-03T14:43:32;9.95;;;6.60;;
65469;SDS011;52067;50.710;14.492;2023-03-03T14:48:51;22.02;;;13.57;;
65469;SDS011;52067;50.710;14.492;2023-03-03T14:53:51;13.10;;;5.70;;
65469;SDS011;52067;50.710;14.492;2023-03-03T14:56:21;21.08;;;9.10;;
65469;SDS011;52067;50.710;14.492;2023-03-03T15:01:43;11.93;;;6.18;;
65469;SDS011;52067;50.710;14.492;2023-03-03T15:04:22;12.68;;;6.13;;
65469;SDS011;52067;50.710;14.492;2023-03-03T15:06:50;15.68;;;9.15;;
65469;SDS011;52067;50.710;14.492;2023-03-03T15:11:54;12.45;;;5.75;;
65469;SDS011;52067;50.710;14.492;2023-03-03T15:14:31;15.10;;;7.03;;
65469;SDS011;52067;50.710;14.492;2023-03-03T15:25:21;20.50;;;7.38;;
65469;SDS011;52067;50.710;14.492;2023-03-03T15:30:46;10.30;;;5.47;;
65469;SDS011;52067;50.710;14.492;2023-03-03T15:39:10;24.98;;;7.60;;
65469;SDS011;52067;50.710;14.492;2023-03-03T15:42:03;11.43;;;5.72;;
65469;SDS011;52067;50.710;14.492;2023-03-03T15:44:48;15.77;;;7.68;;
65469;SDS011;52067;50.710;14.492;2023-03-03T15:55:37;23.10;;;13.13;;
65469;SDS011;52067;50.710;14.492;2023-03-03T15:58:35;10.63;;;4.95;;
65469;SDS011;52067;50.710;14.492;2023-03-03T16:01:16;13.32;;;5.88;;
65469;SDS011;52067;50.710;14.492;2023-03-03T16:09:33;10.68;;;5.05;;
65469;SDS011;52067;50.710;14.492;2023-03-03T16:12:04;11.13;;;4.82;;
65469;SDS011;52067;50.710;14.492;2023-03-03T16:17:39;9.65;;;4.72;;
65469;SDS011;52067;50.710;14.492;2023-03-03T16:22:55;16.48;;;6.47;;
65469;SDS011;52067;50.710;14.492;2023-03-03T16:28:25;14.13;;;6.13;;
65469;SDS011;52067;50.710;14.492;2023-03-03T16:31:10;14.02;;;6.07;;
65469;SDS011;52067;50.710;14.492;2023-03-03T16:37:17;12.60;;;6.07;;
65469;SDS011;52067;50.710;14.492;2023-03-03T16:42:02;9.38;;;4.55;;
65469;SDS011;52067;50.710;14.492;2023-03-03T16:49:44;12.25;;;5.63;;
65469;SDS011;52067;50.710;14.492;2023-03-03T16:52:16;14.30;;;7.05;;
65469;SDS011;52067;50.710;14.492;2023-03-03T16:57:23;15.07;;;5.07;;
65469;SDS011;52067;50.710;14.492;2023-03-03T17:00:06;12.82;;;5.90;;
65469;SDS011;52067;50.710;14.492;2023-03-03T17:12:52;15.73;;;6.90;;
65469;SDS011;52067;50.710;14.492;2023-03-03T17:15:51;16.10;;;6.97;;
65469;SDS011;52067;50.710;14.492;2023-03-03T17:34:43;14.82;;;7.18;;
65469;SDS011;52067;50.710;14.492;2023-03-03T17:40:16;17.42;;;7.85;;
65469;SDS011;52067;50.710;14.492;2023-03-03T17:45:21;15.77;;;7.50;;
65469;SDS011;52067;50.710;14.492;2023-03-03T17:56:12;19.13;;;8.50;;
65469;SDS011;52067;50.710;14.492;2023-03-03T18:18:02;7.25;;;4.10;;
65469;SDS011;52067;50.710;14.492;2023-03-03T18:20:55;26.23;;;9.10;;
65469;SDS011;52067;50.710;14.492;2023-03-03T18:26:48;11.60;;;5.47;;
65469;SDS011;52067;50.710;14.492;2023-03-03T18:44:35;22.63;;;9.60;;
65469;SDS011;52067;50.710;14.492;2023-03-03T18:47:01;18.23;;;8.90;;
65469;SDS011;52067;50.710;14.492;2023-03-03T18:54:42;21.38;;;9.63;;
65469;SDS011;52067;50.710;14.492;2023-03-03T18:57:33;22.27;;;9.82;;
65469;SDS011;52067;50.710;14.492;2023-03-03T19:02:36;20.70;;;7.53;;
65469;SDS011;52067;50.710;14.492;2023-03-03T19:12:58;19.25;;;7.78;;
65469;SDS011;52067;50.710;14.492;2023-03-03T19:20:39;20.85;;;8.38;;
65469;SDS011;52067;50.710;14.492;2023-03-03T19:23:11;23.88;;;8.85;;
65469;SDS011;52067;50.710;14.492;2023-03-03T19:25:39;27.77;;;11.40;;
65469;SDS011;52067;50.710;14.492;2023-03-03T19:30:59;16.00;;;6.65;;
65469;SDS011;52067;50.710;14.492;2023-03-03T19:44:48;34.97;;;9.95;;
65469;SDS011;52067;50.710;14.492;2023-03-03T19:50:21;38.00;;;12.52;;
65469;SDS011;52067;50.710;14.492;2023-03-03T19:56:13;38.10;;;12.05;;
65469;SDS011;52067;50.710;14.492;2023-03-03T19:58:53;39.85;;;12.95;;
65469;SDS011;52067;50.710;14.492;2023-03-03T20:01:28;40.53;;;13.48;;
65469;SDS011;52067;50.710;14.492;2023-03-03T20:09:53;31.45;;;10.52;;
65469;SDS011;52067;50.710;14.492;2023-03-03T20:15:22;37.10;;;11.52;;
65469;SDS011;52067;50.710;14.492;2023-03-03T20:21:07;41.50;;;12.67;;
65469;SDS011;52067;50.710;14.492;2023-03-03T20:26:54;32.97;;;10.75;;
65469;SDS011;52067;50.710;14.492;2023-03-03T20:32:02;40.83;;;13.07;;
65469;SDS011;52067;50.710;14.492;2023-03-03T20:37:47;27.70;;;10.02;;
65469;SDS011;52067;50.710;14.492;2023-03-03T20:40:49;39.58;;;12.18;;
65469;SDS011;52067;50.710;14.492;2023-03-03T20:46:03;38.15;;;11.82;;
65469;SDS011;52067;50.710;14.492;2023-03-03T20:59:50;21.45;;;6.07;;
65469;SDS011;52067;50.710;14.492;2023-03-03T21:02:47;22.75;;;8.15;;
65469;SDS011;52067;50.710;14.492;2023-03-03T21:05:24;36.25;;;11.55;;
65469;SDS011;52067;50.710;14.492;2023-03-03T21:10:16;38.33;;;12.63;;
65469;SDS011;52067;50.710;14.492;2023-03-03T21:12:48;36.08;;;11.00;;
65469;SDS011;52067;50.710;14.492;2023-03-03T21:15:22;26.63;;;9.85;;
65469;SDS011;52067;50.710;14.492;2023-03-03T21:17:59;17.98;;;6.63;;
65469;SDS011;52067;50.710;14.492;2023-03-03T21:33:40;25.42;;;9.13;;
65469;SDS011;52067;50.710;14.492;2023-03-03T21:36:10;32.60;;;10.98;;
65469;SDS011;52067;50.710;14.492;2023-03-03T21:38:37;31.92;;;11.00;;
65469;SDS011;52067;50.710;14.492;2023-03-03T21:41:04;32.42;;;12.57;;
65469;SDS011;52067;50.710;14.492;2023-03-03T21:43:32;33.00;;;10.95;;
65469;SDS011;52067;50.710;14.492;2023-03-03T21:46:02;40.45;;;12.48;;